createdAt,value
2023-05-18T00:02:08.558Z,102092.69
2023-05-18T00:07:10.348Z,102094.22
2023-05-18T00:12:13.366Z,102095.75
2023-05-18T00:17:15.958Z,102095.84
2023-05-18T00:22:20.708Z,102099.19
2023-05-18T00:27:23.750Z,102093.03
2023-05-18T00:32:25.567Z,102099.66
2023-05-18T00:37:27.318Z,102099.22
2023-05-18T00:42:30.626Z,102106.19
2023-05-18T00:47:32.393Z,102105.63
2023-05-18T00:52:34.259Z,102115.72
2023-05-18T00:57:38.291Z,102115.88
2023-05-18T01:02:45.546Z,102108.06
2023-05-18T01:07:47.886Z,102113.03
2023-05-18T01:12:53.774Z,102117.88
2023-05-18T01:18:04.896Z,102117.88
2023-05-18T01:23:14.939Z,102123.19
2023-05-18T01:28:18.786Z,102118.91
2023-05-18T01:33:21.239Z,102120.50
2023-05-18T01:38:23.796Z,102128.22
2023-05-18T01:43:28.439Z,102130.34
2023-05-18T01:48:30.993Z,102135.50
2023-05-18T01:53:35.471Z,102134.50
2023-05-18T01:58:38.533Z,102139.84
2023-05-18T02:03:40.524Z,102135.16
2023-05-18T02:08:42.375Z,102148.91
2023-05-18T02:13:45.419Z,102137.56
2023-05-18T02:18:47.350Z,102136.66
2023-05-18T02:23:49.290Z,102137.88
2023-05-18T02:28:52.382Z,102136.88
2023-05-18T02:33:54.138Z,102137.97
2023-05-18T02:38:57.178Z,102138.50
2023-05-18T02:44:01.211Z,102141.47
2023-05-18T02:49:02.979Z,102142.63
2023-05-18T02:54:04.852Z,102141.03
2023-05-18T02:59:10.260Z,102153.50
2023-05-18T03:04:16.882Z,102142.78
2023-05-18T03:09:23.577Z,102144.50
2023-05-18T03:14:29.784Z,102155.66
2023-05-18T03:19:32.672Z,102152.50
2023-05-18T03:24:40.587Z,102152.72
2023-05-18T03:29:47.948Z,102147.84
2023-05-18T03:34:51.117Z,102160.75
2023-05-18T03:39:55.642Z,102168.84
2023-05-18T03:44:58.860Z,102169.84
2023-05-18T03:50:00.779Z,102175.66
2023-05-18T03:55:02.861Z,102174.69
2023-05-18T04:00:12.151Z,102175.78
2023-05-18T04:05:19.537Z,102172.50
2023-05-18T04:10:22.099Z,102176.78
2023-05-18T04:15:25.170Z,102175.22
2023-05-18T04:20:28.293Z,102181.88
2023-05-18T04:25:30.450Z,102180.97
2023-05-18T04:30:35.456Z,102190.22
2023-05-18T04:35:37.213Z,102195.44
2023-05-18T04:40:42.586Z,102196.31
2023-05-18T04:45:46.599Z,102208.41
2023-05-18T04:50:48.330Z,102206.84
2023-05-18T04:55:50.112Z,102208.47
2023-05-18T05:00:53.472Z,102207.66
2023-05-18T05:05:55.384Z,102209.84
2023-05-18T05:10:57.381Z,102220.72
2023-05-18T05:16:00.530Z,102218.75
2023-05-18T05:21:02.248Z,102213.91
2023-05-18T05:26:04.564Z,102215.22
2023-05-18T05:31:09.181Z,102215.38
2023-05-18T05:36:11.622Z,102220.88
2023-05-18T05:41:13.663Z,102222.16
2023-05-18T05:46:17.278Z,102233.22
2023-05-18T05:51:19.514Z,102234.69
2023-05-18T05:56:21.388Z,102234.53
2023-05-18T06:01:24.496Z,102234.59
2023-05-18T06:06:26.315Z,102232.81
2023-05-18T06:11:28.190Z,102236.28
2023-05-18T06:16:31.314Z,102238.44
2023-05-18T06:21:34.691Z,102241.94
2023-05-18T06:26:37.970Z,102242.03
2023-05-18T06:31:51.998Z,102239.84
2023-05-18T06:37:07.522Z,102241.06
2023-05-18T06:42:09.208Z,102247.50
2023-05-18T06:47:17.525Z,102241.72
2023-05-18T06:52:19.391Z,102250.09
2023-05-18T06:57:21.533Z,102243.28
2023-05-18T07:02:24.800Z,102248.19
2023-05-18T07:07:26.916Z,102244.03
2023-05-18T07:12:29.035Z,102254.09
2023-05-18T07:17:32.241Z,102254.41
2023-05-18T07:22:34.137Z,102246.50
2023-05-18T07:27:35.956Z,102248.34
2023-05-18T07:32:39.167Z,102252.09
2023-05-18T07:37:41.051Z,102256.75
2023-05-18T07:42:42.935Z,102255.03
2023-05-18T07:47:46.326Z,102244.88
2023-05-18T07:52:48.678Z,102244.09
2023-05-18T07:57:50.893Z,102242.47
2023-05-18T08:02:54.215Z,102246.00
2023-05-18T08:07:56.034Z,102241.50
2023-05-18T08:12:57.915Z,102239.75
2023-05-18T08:18:01.016Z,102241.16
2023-05-18T08:23:02.789Z,102237.44
2023-05-18T08:28:04.749Z,102229.84
2023-05-18T08:33:08.059Z,102221.75
2023-05-18T08:38:09.971Z,102224.28
2023-05-18T08:43:13.789Z,102216.63
2023-05-18T08:48:17.233Z,102220.69
2023-05-18T08:53:19.113Z,102216.91
2023-05-18T08:58:22.624Z,102217.03
2023-05-18T09:03:25.688Z,102213.78
2023-05-18T09:08:28.539Z,102207.41
2023-05-18T09:13:30.319Z,102210.75
2023-05-18T09:18:33.443Z,102207.13
2023-05-18T09:23:35.189Z,102200.84
2023-05-18T09:28:38.224Z,102200.53
2023-05-18T09:33:41.432Z,102199.81
2023-05-18T09:38:45.710Z,102200.72
2023-05-18T09:43:47.927Z,102196.91
2023-05-18T09:48:52.695Z,102198.84
2023-05-18T09:53:55.443Z,102197.69
2023-05-18T09:58:57.826Z,102193.28
2023-05-18T10:04:03.977Z,102187.41
2023-05-18T10:09:06.122Z,102184.75
2023-05-18T10:14:08.757Z,102180.66
2023-05-18T10:19:11.862Z,102182.94
2023-05-18T10:24:13.625Z,102183.59
2023-05-18T10:29:15.346Z,102182.59
2023-05-18T10:34:20.292Z,102173.72
2023-05-18T10:39:22.224Z,102174.50
2023-05-18T10:44:24.138Z,102171.34
2023-05-18T10:49:27.228Z,102166.50
2023-05-18T10:54:28.911Z,102160.97
2023-05-18T10:59:30.646Z,102153.38
2023-05-18T11:04:33.708Z,102145.88
2023-05-18T11:09:35.382Z,102139.69
2023-05-18T11:14:37.067Z,102143.09
2023-05-18T11:19:40.022Z,102132.13
2023-05-18T11:24:42.418Z,102136.69
2023-05-18T11:29:45.141Z,102129.53
2023-05-18T11:34:50.361Z,102129.91
2023-05-18T11:40:00.110Z,102133.72
2023-05-18T11:45:06.602Z,102126.28
2023-05-18T11:50:11.670Z,102120.03
2023-05-18T11:55:14.372Z,102127.06
2023-05-18T12:00:17.021Z,102120.16
2023-05-18T12:05:20.093Z,102127.56
2023-05-18T12:10:21.896Z,102122.97
2023-05-18T12:15:24.117Z,102117.41
2023-05-18T12:20:31.106Z,102112.72
2023-05-18T12:25:33.211Z,102115.34
2023-05-18T12:30:35.979Z,102107.00
2023-05-18T12:35:40.131Z,102106.19
2023-05-18T12:40:48.734Z,102108.13
2023-05-18T12:45:50.910Z,102104.28
2023-05-18T12:50:55.473Z,102105.78
2023-05-18T12:55:58.016Z,102090.91
2023-05-18T13:00:59.685Z,102086.09
2023-05-18T13:06:06.782Z,102085.94
2023-05-18T13:11:14.647Z,102086.59
2023-05-18T13:16:16.908Z,102076.78
2023-05-18T13:21:19.972Z,102066.22
2023-05-18T13:26:22.145Z,102059.06
2023-05-18T13:31:23.914Z,102063.25
2023-05-18T13:36:29.511Z,102057.31
2023-05-18T13:41:31.143Z,102057.25
2023-05-18T13:46:32.960Z,102053.06
2023-05-18T13:51:36.271Z,102051.03
2023-05-18T13:56:37.880Z,102044.47
2023-05-18T14:01:42.180Z,102043.16
2023-05-18T14:06:45.626Z,102035.03
2023-05-18T14:11:47.298Z,102030.38
2023-05-18T14:16:49.066Z,102028.59
2023-05-18T14:21:52.101Z,102028.16
2023-05-18T14:26:53.817Z,102025.16
2023-05-18T14:31:55.544Z,102017.53
2023-05-18T14:36:58.547Z,102011.53
2023-05-18T14:42:00.282Z,102002.41
2023-05-18T14:47:02.116Z,101997.28
2023-05-18T14:52:05.864Z,101998.78
2023-05-18T14:57:07.544Z,102002.22
2023-05-18T15:02:09.337Z,102000.91
2023-05-18T15:07:12.407Z,102006.75
2023-05-18T15:12:14.116Z,102002.50
2023-05-18T15:17:15.745Z,101993.59
2023-05-18T15:22:18.696Z,101996.44
2023-05-18T15:27:20.437Z,101993.72
2023-05-18T15:32:22.139Z,101993.63
2023-05-18T15:37:25.379Z,101996.44
2023-05-18T15:42:27.060Z,101985.91
2023-05-18T15:47:29.706Z,101987.25
2023-05-18T15:52:32.791Z,101980.09
2023-05-18T15:57:34.469Z,101978.06
2023-05-18T16:02:37.465Z,101980.78
2023-05-18T16:07:42.150Z,101982.06
2023-05-18T16:12:43.757Z,101984.84
2023-05-18T16:17:45.440Z,101974.50
2023-05-18T16:22:49.221Z,101985.69
2023-05-18T16:27:51.137Z,101976.94
2023-05-18T16:32:52.994Z,101975.41
2023-05-18T16:37:56.686Z,101986.97
2023-05-18T16:42:58.366Z,101984.31
2023-05-18T16:48:02.085Z,101983.53
2023-05-18T16:53:05.123Z,101987.94
2023-05-18T16:58:06.807Z,101983.69
2023-05-18T17:03:08.483Z,101988.13
2023-05-18T17:08:11.624Z,101984.75
2023-05-18T17:13:13.248Z,101981.31
2023-05-18T17:18:14.963Z,101974.66
2023-05-18T17:23:18.762Z,101987.50
2023-05-18T17:28:20.594Z,101990.41
2023-05-18T17:33:22.240Z,101993.00
2023-05-18T17:38:25.216Z,101990.63
2023-05-18T17:43:26.857Z,101985.38
2023-05-18T17:48:28.549Z,101986.50
2023-05-18T17:53:31.533Z,101992.66
2023-05-18T17:58:33.231Z,101992.88
2023-05-18T18:03:34.968Z,101997.28
2023-05-18T18:08:38.118Z,101992.00
2023-05-18T18:13:39.904Z,102000.97
2023-05-18T18:18:41.720Z,102004.72
2023-05-18T18:23:44.952Z,102013.56
2023-05-18T18:28:46.676Z,102010.56
2023-05-18T18:33:50.660Z,102014.97
2023-05-18T18:38:53.748Z,102020.34
2023-05-18T18:43:57.084Z,102016.94
2023-05-18T18:48:58.775Z,102024.06
2023-05-18T18:54:01.782Z,102031.19
2023-05-18T18:59:03.490Z,102025.22
2023-05-18T19:04:05.338Z,102044.69
2023-05-18T19:09:08.377Z,102038.56
2023-05-18T19:14:10.073Z,102045.53
2023-05-18T19:19:11.885Z,102050.94
2023-05-18T19:24:15.192Z,102047.47
2023-05-18T19:29:16.912Z,102050.19
2023-05-18T19:34:18.735Z,102051.91
2023-05-18T19:39:21.808Z,102051.03
2023-05-18T19:44:23.504Z,102049.31
2023-05-18T19:49:25.378Z,102053.78
2023-05-18T19:54:28.447Z,102054.69
2023-05-18T19:59:30.177Z,102056.50
2023-05-18T20:04:33.417Z,102052.22
2023-05-18T20:09:36.795Z,102047.84
2023-05-18T20:14:39.170Z,102054.00
2023-05-18T20:19:45.445Z,102054.00
2023-05-18T20:24:48.888Z,102058.44
2023-05-18T20:29:50.744Z,102054.91
2023-05-18T20:34:52.527Z,102060.19
2023-05-18T20:39:57.660Z,102062.84
2023-05-18T20:44:59.419Z,102070.78
2023-05-18T20:50:02.043Z,102065.50
2023-05-18T20:55:05.838Z,102071.66
2023-05-18T21:00:08.664Z,102083.06
2023-05-18T21:05:10.539Z,102085.69
2023-05-18T21:10:13.593Z,102082.19
2023-05-18T21:15:15.586Z,102077.75
2023-05-18T21:20:17.332Z,102086.47
2023-05-18T21:25:20.784Z,102086.38
2023-05-18T21:30:22.927Z,102087.41
2023-05-18T21:35:24.890Z,102089.94
2023-05-18T21:40:27.968Z,102085.53
2023-05-18T21:45:29.750Z,102095.97
2023-05-18T21:50:34.463Z,102092.47
2023-05-18T21:55:38.157Z,102090.69
2023-05-18T22:00:39.863Z,102088.78
2023-05-18T22:05:44.588Z,102086.22
2023-05-18T22:10:47.662Z,102089.81
2023-05-18T22:15:49.362Z,102088.06
2023-05-18T22:20:51.158Z,102087.22
2023-05-18T22:25:54.228Z,102088.97
2023-05-18T22:30:55.944Z,102090.69
2023-05-18T22:35:57.830Z,102087.06
2023-05-18T22:41:00.900Z,102093.19
2023-05-18T22:46:03.100Z,102081.75
2023-05-18T22:51:06.319Z,102087.00
2023-05-18T22:56:09.449Z,102080.00
2023-05-18T23:01:11.171Z,102081.69
2023-05-18T23:06:13.979Z,102081.47
2023-05-18T23:11:18.411Z,102076.94
2023-05-18T23:16:20.591Z,102077.03
2023-05-18T23:21:22.387Z,102074.16
2023-05-18T23:26:25.480Z,102071.63
2023-05-18T23:31:27.565Z,102073.38
2023-05-18T23:36:30.504Z,102074.25
2023-05-18T23:41:33.902Z,102062.84
2023-05-18T23:46:36.292Z,102075.13
2023-05-18T23:51:37.974Z,102064.75
2023-05-18T23:56:41.713Z,102066.56
